Terminal Aerodrome Forecast
Issued by NWS Louisville, KY

Home | Current Version | Previous Version | Text Only | Print | Product List | Glossary On
Versions: 1 2 3 4 5 6 7 8 9 10 11 12 13 14 15 16 17 18 19 20 21 22
000
FTUS43 KLMK 031100 CCA
TAFBWG
TAF COR
KBWG 031147Z 0312/0412 24004KT P6SM VCTS BKN009CB
     FM031500 24008KT 5SM -SHRA VCTS BKN015CB
      TEMPO 0321/0401 3SM TSRA BR BKN008CB
     FM040300 23006KT 5SM BR BKN012
     FM040800 VRB03KT 3SM BR BKN006=

USA.gov is the U.S. government's official web portal to all federal, state and local government web resources and services.